createdAt,value
2023-08-29T00:01:10.860Z,16.40
2023-08-29T00:03:40.624Z,17.83
2023-08-29T00:06:10.414Z,16.48
2023-08-29T00:08:40.184Z,18.00
2023-08-29T00:11:09.939Z,16.98
2023-08-29T00:13:39.691Z,16.20
2023-08-29T00:16:09.866Z,18.73
2023-08-29T00:18:39.481Z,17.73
2023-08-29T00:21:09.102Z,17.95
2023-08-29T00:23:38.741Z,16.90
2023-08-29T00:26:08.646Z,16.55
2023-08-29T00:28:38.243Z,17.05
2023-08-29T00:31:07.856Z,17.08
2023-08-29T00:33:37.484Z,16.38
2023-08-29T00:36:07.236Z,16.48
2023-08-29T00:38:36.896Z,16.45
2023-08-29T00:41:06.589Z,16.73
2023-08-29T00:43:36.207Z,17.35
2023-08-29T00:46:07.163Z,15.90
2023-08-29T00:48:36.929Z,17.23
2023-08-29T00:51:06.600Z,16.33
2023-08-29T00:53:37.936Z,15.77
2023-08-29T00:56:08.805Z,16.65
2023-08-29T00:58:38.670Z,16.75
2023-08-29T01:01:08.445Z,17.05
2023-08-29T01:03:38.852Z,16.83
2023-08-29T01:06:08.759Z,16.30
2023-08-29T01:08:38.533Z,14.85
2023-08-29T01:11:25.972Z,15.90
2023-08-29T01:14:01.368Z,14.43
2023-08-29T01:16:41.176Z,16.85
2023-08-29T01:19:17.295Z,16.15
2023-08-29T01:21:53.166Z,16.75
2023-08-29T01:25:02.706Z,15.82
2023-08-29T01:27:32.960Z,14.50
2023-08-29T01:30:03.163Z,15.02
2023-08-29T01:32:34.988Z,15.38
2023-08-29T01:35:07.495Z,13.88
2023-08-29T01:37:37.212Z,13.97
2023-08-29T01:40:07.396Z,13.15
2023-08-29T01:42:38.993Z,12.43
2023-08-29T01:45:09.235Z,12.30
2023-08-29T01:47:38.909Z,11.73
2023-08-29T01:50:10.607Z,11.60
2023-08-29T01:52:40.981Z,10.50
2023-08-29T01:55:10.912Z,11.13
2023-08-29T01:57:42.470Z,10.80
2023-08-29T02:00:12.922Z,10.52
2023-08-29T02:02:42.691Z,10.60
2023-08-29T02:05:12.430Z,9.57
2023-08-29T02:07:42.135Z,9.25
2023-08-29T02:10:13.195Z,9.40
2023-08-29T02:12:42.766Z,8.90
2023-08-29T02:15:13.560Z,9.00
2023-08-29T02:17:43.671Z,8.75
2023-08-29T02:20:13.649Z,8.85
2023-08-29T02:22:43.309Z,9.10
2023-08-29T02:25:13.114Z,8.52
2023-08-29T02:27:42.782Z,9.15
2023-08-29T02:30:13.028Z,8.77
2023-08-29T02:32:43.777Z,7.90
2023-08-29T02:35:13.458Z,8.70
2023-08-29T02:37:43.322Z,9.02
2023-08-29T02:40:13.395Z,8.85
2023-08-29T02:42:43.057Z,9.10
2023-08-29T02:45:13.115Z,8.25
2023-08-29T02:50:15.001Z,9.13
2023-08-29T02:52:44.666Z,9.40
2023-08-29T02:55:14.279Z,9.48
2023-08-29T02:57:43.902Z,9.95
2023-08-29T03:00:14.026Z,8.95
2023-08-29T03:02:44.805Z,9.35
2023-08-29T03:05:14.676Z,10.07
2023-08-29T03:07:44.268Z,9.73
2023-08-29T03:10:14.729Z,9.73
2023-08-29T03:12:45.730Z,10.25
2023-08-29T03:15:15.970Z,10.00
2023-08-29T03:17:48.645Z,9.95
2023-08-29T03:20:18.436Z,11.45
2023-08-29T03:22:48.817Z,10.05
2023-08-29T03:25:18.459Z,11.20
2023-08-29T03:27:48.091Z,10.93
2023-08-29T03:30:18.099Z,10.88
2023-08-29T03:32:52.062Z,10.25
2023-08-29T03:35:22.828Z,10.43
2023-08-29T03:37:52.443Z,10.20
2023-08-29T03:40:22.155Z,10.38
2023-08-29T03:42:51.778Z,9.18
2023-08-29T03:45:21.560Z,9.05
2023-08-29T03:47:51.522Z,8.52
2023-08-29T03:50:22.448Z,7.60
2023-08-29T03:52:52.263Z,7.53
2023-08-29T03:55:21.945Z,6.82
2023-08-29T03:57:52.278Z,6.28
2023-08-29T04:00:21.914Z,5.65
2023-08-29T04:02:51.697Z,4.00
2023-08-29T04:05:21.532Z,4.22
2023-08-29T04:07:51.266Z,3.20
2023-08-29T04:10:20.951Z,2.38
2023-08-29T04:12:50.630Z,1.63
2023-08-29T04:15:20.471Z,1.77
2023-08-29T04:17:50.095Z,2.60
2023-08-29T04:20:19.902Z,1.10
2023-08-29T04:22:49.708Z,1.42
2023-08-29T04:25:19.339Z,1.23
2023-08-29T04:27:50.648Z,0.80
2023-08-29T04:30:20.372Z,0.60
2023-08-29T04:32:53.259Z,0.57
2023-08-29T04:35:23.155Z,0.60
2023-08-29T04:37:52.988Z,0.60
2023-08-29T04:40:24.113Z,0.32
2023-08-29T04:42:54.798Z,0.50
2023-08-29T04:45:26.031Z,0.80
2023-08-29T04:47:55.683Z,0.35
2023-08-29T04:50:25.341Z,0.30
2023-08-29T04:52:56.445Z,0.30
2023-08-29T04:55:26.139Z,0.38
2023-08-29T04:57:58.841Z,0.40
2023-08-29T05:00:28.471Z,0.50
2023-08-29T05:02:58.525Z,0.25
2023-08-29T05:05:28.229Z,0.50
2023-08-29T05:07:57.917Z,0.30
2023-08-29T05:10:27.688Z,0.20
2023-08-29T05:12:57.426Z,0.20
2023-08-29T05:15:27.109Z,0.20
2023-08-29T05:17:56.788Z,0.40
2023-08-29T05:20:26.497Z,0.80
2023-08-29T05:22:56.120Z,1.50
2023-08-29T05:25:25.935Z,1.83
2023-08-29T05:27:55.550Z,1.98
2023-08-29T05:30:25.325Z,2.13
2023-08-29T05:32:57.544Z,1.75
2023-08-29T05:35:27.176Z,1.63
2023-08-29T05:37:56.812Z,1.70
2023-08-29T05:40:26.529Z,1.42
2023-08-29T05:42:56.109Z,1.80
2023-08-29T05:45:25.888Z,1.90
2023-08-29T05:47:55.591Z,1.50
2023-08-29T05:50:25.274Z,1.63
2023-08-29T05:52:54.877Z,1.58
2023-08-29T05:55:24.544Z,1.73
2023-08-29T05:57:54.157Z,1.20
2023-08-29T06:00:24.016Z,2.20
2023-08-29T06:02:55.177Z,1.63
2023-08-29T06:05:25.074Z,1.50
2023-08-29T06:07:59.410Z,1.67
2023-08-29T06:10:38.896Z,2.50
2023-08-29T06:13:08.758Z,1.20
2023-08-29T06:15:38.463Z,1.60
2023-08-29T06:18:08.683Z,2.03
2023-08-29T06:20:39.320Z,1.60
2023-08-29T06:23:08.920Z,1.73
2023-08-29T06:25:38.519Z,1.42
2023-08-29T06:28:08.876Z,1.50
2023-08-29T06:30:39.878Z,1.70
2023-08-29T06:33:09.709Z,1.70
2023-08-29T06:35:42.287Z,1.83
2023-08-29T06:38:11.973Z,1.95
2023-08-29T06:40:41.646Z,1.77
2023-08-29T06:43:11.318Z,3.80
2023-08-29T06:45:40.918Z,4.43
2023-08-29T06:48:11.005Z,4.97
2023-08-29T06:50:40.947Z,5.18
2023-08-29T06:53:10.734Z,5.22
2023-08-29T06:55:40.413Z,5.30
2023-08-29T06:58:10.027Z,5.85
2023-08-29T07:00:39.782Z,5.57
2023-08-29T07:03:09.543Z,4.97
2023-08-29T07:05:39.291Z,5.25
2023-08-29T07:08:09.891Z,4.97
2023-08-29T07:10:39.726Z,5.90
2023-08-29T07:13:09.576Z,4.70
2023-08-29T07:15:39.329Z,4.82
2023-08-29T07:18:09.410Z,4.65
2023-08-29T07:20:39.925Z,4.10
2023-08-29T07:23:09.978Z,3.47
2023-08-29T07:25:45.213Z,3.20
2023-08-29T07:28:16.404Z,2.42
2023-08-29T07:30:52.880Z,3.00
2023-08-29T07:33:22.974Z,3.03
2023-08-29T07:35:53.582Z,3.13
2023-08-29T07:38:23.602Z,2.63
2023-08-29T07:40:53.216Z,3.28
2023-08-29T07:43:22.914Z,2.30
2023-08-29T07:45:55.721Z,2.80
2023-08-29T07:48:25.398Z,2.45
2023-08-29T07:50:55.057Z,2.30
2023-08-29T07:53:24.874Z,2.42
2023-08-29T07:55:54.516Z,2.65
2023-08-29T07:58:24.083Z,2.30
2023-08-29T08:00:53.743Z,2.05
2023-08-29T08:03:23.318Z,2.22
2023-08-29T08:05:53.018Z,1.90
2023-08-29T08:08:22.648Z,1.95
2023-08-29T08:10:52.435Z,2.25
2023-08-29T08:13:22.095Z,2.08
2023-08-29T08:15:51.638Z,1.77
2023-08-29T08:18:21.282Z,2.28
2023-08-29T08:20:51.099Z,1.92
2023-08-29T08:23:20.741Z,2.03
2023-08-29T08:25:50.841Z,1.70
2023-08-29T08:28:20.426Z,1.70
2023-08-29T08:30:49.980Z,1.75
2023-08-29T08:33:19.710Z,1.83
2023-08-29T08:35:57.202Z,1.25
2023-08-29T08:38:27.366Z,2.00
2023-08-29T08:41:03.273Z,1.50
2023-08-29T08:43:34.458Z,1.90
2023-08-29T08:46:04.510Z,1.85
2023-08-29T08:48:34.437Z,1.40
2023-08-29T08:51:06.779Z,1.60
2023-08-29T08:53:37.787Z,1.23
2023-08-29T08:56:07.554Z,1.50
2023-08-29T08:58:39.393Z,1.45
2023-08-29T09:01:09.083Z,1.38
2023-08-29T09:03:38.774Z,1.15
2023-08-29T09:06:13.708Z,1.30
2023-08-29T09:08:44.061Z,1.40
2023-08-29T09:11:15.549Z,1.48
2023-08-29T09:13:52.556Z,1.40
2023-08-29T09:16:24.289Z,1.40
2023-08-29T09:18:54.320Z,1.38
2023-08-29T09:21:26.949Z,1.40
2023-08-29T09:23:56.781Z,1.50
2023-08-29T09:26:35.110Z,1.20
2023-08-29T09:29:20.506Z,1.52
2023-08-29T09:31:50.748Z,1.30
2023-08-29T09:34:33.836Z,1.60
2023-08-29T09:37:07.194Z,1.80
2023-08-29T09:42:08.400Z,1.17
2023-08-29T09:44:42.494Z,1.40
2023-08-29T09:47:15.221Z,3.00
2023-08-29T09:49:50.040Z,3.85
2023-08-29T09:52:25.234Z,3.17
2023-08-29T09:54:55.915Z,3.85
2023-08-29T09:57:27.975Z,2.05
2023-08-29T10:00:01.280Z,1.77
2023-08-29T10:05:12.104Z,1.80
2023-08-29T10:07:45.896Z,2.22
2023-08-29T10:10:16.057Z,2.30
2023-08-29T10:12:46.928Z,2.15
2023-08-29T10:15:17.090Z,2.70
2023-08-29T10:17:49.285Z,2.42
2023-08-29T10:20:20.219Z,3.20
2023-08-29T10:22:51.922Z,2.55
2023-08-29T10:25:24.594Z,3.22
2023-08-29T10:27:54.386Z,3.90
2023-08-29T10:30:27.731Z,3.17
2023-08-29T10:35:28.762Z,3.00
2023-08-29T10:37:58.588Z,3.50
2023-08-29T10:40:39.624Z,4.38
2023-08-29T10:43:28.701Z,4.00
2023-08-29T10:45:59.317Z,4.03
2023-08-29T10:48:47.199Z,3.92
2023-08-29T10:51:18.782Z,4.43
2023-08-29T10:53:52.440Z,4.20
2023-08-29T10:56:28.175Z,4.22
2023-08-29T10:58:58.542Z,4.47
2023-08-29T11:01:31.017Z,3.83
2023-08-29T11:04:02.315Z,3.83
2023-08-29T11:06:55.641Z,4.50
2023-08-29T11:09:27.051Z,3.38
2023-08-29T11:12:18.646Z,3.85
2023-08-29T11:14:58.280Z,3.13
2023-08-29T11:17:28.875Z,3.28
2023-08-29T11:19:59.625Z,3.45
2023-08-29T11:22:33.109Z,3.42
2023-08-29T11:25:02.820Z,3.08
2023-08-29T11:27:32.542Z,2.72
2023-08-29T11:30:22.175Z,3.38
2023-08-29T11:32:55.313Z,3.08
2023-08-29T11:35:25.004Z,3.08
2023-08-29T11:37:54.692Z,3.08
2023-08-29T11:40:26.590Z,3.22
2023-08-29T11:43:33.939Z,3.65
2023-08-29T11:45:59.473Z,3.47
2023-08-29T11:48:34.182Z,3.33
2023-08-29T11:51:09.324Z,2.72
2023-08-29T11:53:41.022Z,4.18
2023-08-29T11:56:13.862Z,3.55
2023-08-29T11:58:44.516Z,3.38
2023-08-29T12:01:14.187Z,3.60
2023-08-29T12:03:44.086Z,3.28
2023-08-29T12:06:14.900Z,3.67
2023-08-29T12:08:46.753Z,3.60
2023-08-29T12:11:19.624Z,3.33
2023-08-29T12:14:08.103Z,3.97
2023-08-29T12:16:37.896Z,3.60
2023-08-29T12:19:16.507Z,3.25
2023-08-29T12:21:59.603Z,3.70
2023-08-29T12:24:29.332Z,3.88
2023-08-29T12:26:58.931Z,3.60
2023-08-29T12:29:28.811Z,3.53
2023-08-29T12:31:58.453Z,3.92
2023-08-29T12:34:30.482Z,3.72
2023-08-29T12:37:00.086Z,3.95
2023-08-29T12:39:29.702Z,3.45
2023-08-29T12:41:59.579Z,3.60
2023-08-29T12:44:29.162Z,3.40
2023-08-29T12:46:58.812Z,3.45
2023-08-29T12:49:28.794Z,3.85
2023-08-29T12:51:58.515Z,3.83
2023-08-29T12:54:30.717Z,3.72
2023-08-29T12:57:00.575Z,3.75
2023-08-29T12:59:30.311Z,4.07
2023-08-29T13:02:00.041Z,4.07
2023-08-29T13:04:29.712Z,4.32
2023-08-29T13:06:59.386Z,4.57
2023-08-29T13:09:37.670Z,4.53
2023-08-29T13:12:11.241Z,4.10
2023-08-29T13:14:40.938Z,4.47
2023-08-29T13:17:13.529Z,4.65
2023-08-29T13:19:44.659Z,4.00
2023-08-29T13:22:14.290Z,4.00
2023-08-29T13:24:43.981Z,5.30
2023-08-29T13:27:13.890Z,4.03
2023-08-29T13:29:43.658Z,4.53
2023-08-29T13:32:13.840Z,4.85
2023-08-29T13:34:43.477Z,5.20
2023-08-29T13:37:13.782Z,4.88
2023-08-29T13:39:49.671Z,5.22
2023-08-29T13:42:20.109Z,4.85
2023-08-29T13:44:49.791Z,4.55
2023-08-29T13:47:19.402Z,4.63
2023-08-29T13:49:49.580Z,5.03
2023-08-29T13:52:19.221Z,4.45
2023-08-29T13:54:49.039Z,4.68
2023-08-29T13:57:18.859Z,4.60
2023-08-29T13:59:48.506Z,5.20
2023-08-29T14:02:18.284Z,4.85
2023-08-29T14:04:48.093Z,4.55
2023-08-29T14:07:19.402Z,4.63
2023-08-29T14:09:49.199Z,4.90
2023-08-29T14:12:19.402Z,4.55
2023-08-29T14:14:49.066Z,4.97
2023-08-29T14:17:19.011Z,4.57
2023-08-29T14:19:48.689Z,4.90
2023-08-29T14:22:18.345Z,4.28
2023-08-29T14:24:48.074Z,4.03
2023-08-29T14:27:18.012Z,4.65
2023-08-29T14:29:47.728Z,4.80
2023-08-29T14:32:17.428Z,4.95
2023-08-29T14:34:47.435Z,4.22
2023-08-29T14:37:17.144Z,4.57
2023-08-29T14:39:48.323Z,5.00
2023-08-29T14:42:18.500Z,5.13
2023-08-29T14:44:48.336Z,4.75
2023-08-29T14:47:18.154Z,4.18
2023-08-29T14:49:47.947Z,4.15
2023-08-29T14:52:17.694Z,4.40
2023-08-29T14:54:47.594Z,4.57
2023-08-29T14:57:17.279Z,4.72
2023-08-29T14:59:47.104Z,4.55
2023-08-29T15:02:17.381Z,4.35
2023-08-29T15:04:50.332Z,4.15
2023-08-29T15:07:20.579Z,4.10
2023-08-29T15:09:51.322Z,3.60
2023-08-29T15:12:24.226Z,4.40
2023-08-29T15:14:55.105Z,3.50
2023-08-29T15:17:27.736Z,3.90
2023-08-29T15:19:58.548Z,3.65
2023-08-29T15:22:29.052Z,4.50
2023-08-29T15:24:59.879Z,3.83
2023-08-29T15:27:30.246Z,3.75
2023-08-29T15:30:00.545Z,3.40
2023-08-29T15:32:31.271Z,3.70
2023-08-29T15:35:08.142Z,4.00
2023-08-29T15:37:38.792Z,3.75
2023-08-29T15:40:14.649Z,4.35
2023-08-29T15:42:46.166Z,4.00
2023-08-29T15:45:17.333Z,3.67
2023-08-29T15:47:47.518Z,3.50
2023-08-29T15:50:18.774Z,3.70
2023-08-29T15:52:49.002Z,3.38
2023-08-29T15:55:19.928Z,4.05
2023-08-29T15:57:50.056Z,3.03
2023-08-29T16:00:20.574Z,3.78
2023-08-29T16:02:52.214Z,3.67
2023-08-29T16:05:27.271Z,4.07
2023-08-29T16:07:58.379Z,3.47
2023-08-29T16:10:28.771Z,3.83
2023-08-29T16:12:59.806Z,4.38
2023-08-29T16:15:30.560Z,3.85
2023-08-29T16:18:01.016Z,4.28
2023-08-29T16:20:32.022Z,3.95
2023-08-29T16:23:02.484Z,4.55
2023-08-29T16:25:32.872Z,4.47
2023-08-29T16:28:05.168Z,4.07
2023-08-29T16:30:36.314Z,4.65
2023-08-29T16:33:09.832Z,3.97
2023-08-29T16:35:40.160Z,4.13
2023-08-29T16:38:10.940Z,5.22
2023-08-29T16:40:42.586Z,5.05
2023-08-29T16:43:13.017Z,4.30
2023-08-29T16:45:43.746Z,5.43
2023-08-29T16:48:14.059Z,4.63
2023-08-29T16:50:44.744Z,4.93
2023-08-29T16:53:14.870Z,4.97
2023-08-29T16:55:45.740Z,5.43
2023-08-29T16:58:16.181Z,5.00
2023-08-29T17:00:46.744Z,5.00
2023-08-29T17:03:17.785Z,4.93
2023-08-29T17:05:48.583Z,4.20
2023-08-29T17:08:18.476Z,5.43
2023-08-29T17:10:53.322Z,3.90
2023-08-29T17:13:23.761Z,4.55
2023-08-29T17:15:54.127Z,4.63
2023-08-29T17:18:24.837Z,4.38
2023-08-29T17:20:55.264Z,4.90
2023-08-29T17:23:25.757Z,4.63
2023-08-29T17:25:57.242Z,4.65
2023-08-29T17:28:27.309Z,4.70
2023-08-29T17:30:57.406Z,4.68
2023-08-29T17:33:28.264Z,4.13
2023-08-29T17:35:57.865Z,5.15
2023-08-29T17:38:27.582Z,4.22
2023-08-29T17:41:02.548Z,5.07
2023-08-29T17:43:32.292Z,4.20
2023-08-29T17:46:05.925Z,5.22
2023-08-29T17:48:35.650Z,6.00
2023-08-29T17:51:08.629Z,5.28
2023-08-29T17:53:38.362Z,8.32
2023-08-29T17:56:08.683Z,6.85
2023-08-29T17:58:38.538Z,8.65
2023-08-29T18:01:08.285Z,8.27
2023-08-29T18:03:38.061Z,6.25
2023-08-29T18:06:22.603Z,6.10
2023-08-29T18:08:55.269Z,6.85
2023-08-29T18:11:25.061Z,8.13
2023-08-29T18:13:54.668Z,7.72
2023-08-29T18:16:24.382Z,7.72
2023-08-29T18:18:54.444Z,7.88
2023-08-29T18:21:24.048Z,9.50
2023-08-29T18:23:53.824Z,8.27
2023-08-29T18:26:24.196Z,9.68
2023-08-29T18:28:54.051Z,8.95
2023-08-29T18:31:23.805Z,9.25
2023-08-29T18:33:53.601Z,9.02
2023-08-29T18:36:23.432Z,8.90
2023-08-29T18:38:53.060Z,8.80
2023-08-29T18:41:22.643Z,8.73
2023-08-29T18:43:52.314Z,10.10
2023-08-29T18:46:21.890Z,10.00
2023-08-29T18:48:52.900Z,11.18
2023-08-29T18:51:22.509Z,11.13
2023-08-29T18:53:52.147Z,12.10
2023-08-29T18:56:21.965Z,12.48
2023-08-29T18:58:51.628Z,13.77
2023-08-29T19:01:21.957Z,13.52
2023-08-29T19:03:51.652Z,14.93
2023-08-29T19:06:24.432Z,13.60
2023-08-29T19:08:54.288Z,13.53
2023-08-29T19:11:24.419Z,12.70
2023-08-29T19:13:54.338Z,13.63
2023-08-29T19:16:26.712Z,12.38
2023-08-29T19:18:56.340Z,13.98
2023-08-29T19:21:27.714Z,12.82
2023-08-29T19:23:59.568Z,12.77
2023-08-29T19:26:30.551Z,10.73
2023-08-29T19:29:00.248Z,12.40
2023-08-29T19:31:29.948Z,11.18
2023-08-29T19:34:02.194Z,12.02
2023-08-29T19:36:31.837Z,12.25
2023-08-29T19:39:12.259Z,11.88
2023-08-29T19:41:47.702Z,10.52
2023-08-29T19:44:20.622Z,12.38
2023-08-29T19:46:50.825Z,11.32
2023-08-29T19:49:20.509Z,11.20
2023-08-29T19:51:50.629Z,11.25
2023-08-29T19:54:20.303Z,11.45
2023-08-29T19:56:50.068Z,11.18
2023-08-29T19:59:20.717Z,11.05
2023-08-29T20:01:50.417Z,11.15
2023-08-29T20:04:19.960Z,10.65
2023-08-29T20:06:49.633Z,11.68
2023-08-29T20:09:19.278Z,12.27
2023-08-29T20:11:48.907Z,12.95
2023-08-29T20:14:18.498Z,12.68
2023-08-29T20:16:48.188Z,12.77
2023-08-29T20:19:21.375Z,12.55
2023-08-29T20:21:50.957Z,12.93
2023-08-29T20:24:25.971Z,11.25
2023-08-29T20:26:55.664Z,11.65
2023-08-29T20:29:25.293Z,15.45
2023-08-29T20:31:55.008Z,15.30
2023-08-29T20:34:24.660Z,12.57
2023-08-29T20:36:54.547Z,13.32
2023-08-29T20:39:25.218Z,15.25
2023-08-29T20:41:54.850Z,13.43
2023-08-29T20:44:24.490Z,14.20
2023-08-29T20:46:54.629Z,12.90
2023-08-29T20:49:24.236Z,12.07
2023-08-29T20:51:54.494Z,13.13
2023-08-29T20:54:24.341Z,12.00
2023-08-29T20:56:53.913Z,12.50
2023-08-29T20:59:23.622Z,13.63
2023-08-29T21:01:53.355Z,13.18
2023-08-29T21:04:22.947Z,11.98
2023-08-29T21:06:52.594Z,12.57
2023-08-29T21:09:23.657Z,12.68
2023-08-29T21:11:53.777Z,11.77
2023-08-29T21:14:23.672Z,11.52
2023-08-29T21:16:53.410Z,12.27
2023-08-29T21:19:23.059Z,12.70
2023-08-29T21:21:52.662Z,13.23
2023-08-29T21:24:22.283Z,14.00
2023-08-29T21:26:51.923Z,13.20
2023-08-29T21:29:21.607Z,15.93
2023-08-29T21:31:51.380Z,13.90
2023-08-29T21:34:21.040Z,14.32
2023-08-29T21:36:50.655Z,15.13
2023-08-29T21:39:20.313Z,13.32
2023-08-29T21:41:50.250Z,13.73
2023-08-29T21:44:19.840Z,13.25
2023-08-29T21:46:49.427Z,14.95
2023-08-29T21:49:19.058Z,14.65
2023-08-29T21:51:50.185Z,14.82
2023-08-29T21:54:19.873Z,16.08
2023-08-29T21:56:49.467Z,14.30
2023-08-29T21:59:19.143Z,13.55
2023-08-29T22:01:51.288Z,12.80
2023-08-29T22:04:20.949Z,12.88
2023-08-29T22:06:50.615Z,12.23
2023-08-29T22:09:20.194Z,12.95
2023-08-29T22:11:49.851Z,12.05
2023-08-29T22:14:19.533Z,11.43
2023-08-29T22:16:49.140Z,11.48
2023-08-29T22:19:18.824Z,12.65
2023-08-29T22:21:48.470Z,12.82
2023-08-29T22:24:18.078Z,11.82
2023-08-29T22:26:47.864Z,12.30
2023-08-29T22:29:17.480Z,12.02
2023-08-29T22:31:47.136Z,11.88
2023-08-29T22:34:16.759Z,11.43
2023-08-29T22:36:46.366Z,11.25
2023-08-29T22:39:16.552Z,8.65
2023-08-29T22:41:46.394Z,10.50
2023-08-29T22:44:16.029Z,12.57
2023-08-29T22:46:45.701Z,12.60
2023-08-29T22:49:15.362Z,12.60
2023-08-29T22:51:45.003Z,13.88
2023-08-29T22:54:14.906Z,13.02
2023-08-29T22:56:44.493Z,11.05
2023-08-29T22:59:14.085Z,12.13
2023-08-29T23:01:43.693Z,15.02
2023-08-29T23:04:13.324Z,14.63
2023-08-29T23:06:44.561Z,14.45
2023-08-29T23:09:17.650Z,13.18
2023-08-29T23:11:47.281Z,15.77
2023-08-29T23:14:27.406Z,13.07
2023-08-29T23:16:57.595Z,15.63
2023-08-29T23:19:27.848Z,12.80
2023-08-29T23:21:57.689Z,12.70
2023-08-29T23:24:28.107Z,14.88
2023-08-29T23:26:57.893Z,13.25
2023-08-29T23:29:28.306Z,13.02
2023-08-29T23:31:57.878Z,14.88
2023-08-29T23:34:28.468Z,13.80
2023-08-29T23:36:58.103Z,12.32
2023-08-29T23:39:27.698Z,14.18
2023-08-29T23:41:58.571Z,14.27
2023-08-29T23:44:28.278Z,13.18
2023-08-29T23:47:00.978Z,15.30
2023-08-29T23:49:30.608Z,12.23
2023-08-29T23:52:00.235Z,15.70
2023-08-29T23:54:29.952Z,13.60
2023-08-29T23:56:59.607Z,15.35
2023-08-29T23:59:30.207Z,13.60
